Ivalo

Airport
ICAO code: 
EFIV
Summary
ICAO Region: 
EUR
Territory: 
Location: 
Ivalo, Inari,
Coordinates: 
Aerial View: 
68° 36' 22.99" N, 27° 24' 10.544" E
Airport GND: 
Aircraft Ground De/Anti Icing
Airport RE: 
Landing on Contaminated Runways
Metar
Observation
EFIV 271820Z AUTO 25003KT 9999 FEW005 OVC046 M21/M23 Q1010
Station
Ivalo
Date/Time
2021-11-27 18:20:00
Wind direction
250°
Wind speed
03 kts
Lowest cloud amount
few clouds
Temperature
-21°C
Dew point
-23°C
Humidity
83%
QNH
1010 hPa
Weather condition
n/a

Description

Largely domestic but also international airport serving the town of Ivalo and community of the district of Inari in northern Finland. The airport is located 7nm sothwest of Ivalo.

Climatology

Subarctic climate (Köppen climate classification Dfc) - long, usually very cold winters, and short, cool to mild summers.

Runways

Designator Length Width Surface Rops
8/26 800 45 ASP Yes/Yes
4/22 2499 45 ASP Yes/Yes
Airport map: 
Aerial View: 

SKYbrary Partners:

Safety knowledge contributed by: